Time;durP1;ratioP1;P1;durP2;ratioP2;P2;SDS_P1;SDS_P2;PMS_P1;PMS_P2;Temp;Humidity;BMP_temperature;BMP_pressure;BME280_temperature;BME280_humidity;BME280_pressure;Samples;Min_cycle;Max_cycle;Signal;HPM_P1;HPM_P2
2021/08/06 00:02:16;;;;;;;0.15;0.15;;;15.50;99.90;;;;;;4995932;28;20441;-73
2021/08/06 00:04:43;;;;;;;0.35;0.35;;;15.50;99.90;;;;;;5013371;28;20075;-73
2021/08/06 00:07:10;;;;;;;0.10;0.10;;;15.50;99.90;;;;;;4995605;28;20025;-73
2021/08/06 00:09:37;;;;;;;0.10;0.10;;;15.50;99.90;;;;;;4995403;28;20041;-74
2021/08/06 00:12:04;;;;;;;0.22;0.22;;;15.40;99.90;;;;;;4995826;28;20022;-73
2021/08/06 00:14:30;;;;;;;0.13;0.13;;;15.50;99.90;;;;;;4979550;28;20113;-74
2021/08/06 00:16:55;;;;;;;0.20;0.20;;;15.50;99.90;;;;;;4995730;28;20553;-73
2021/08/06 00:19:21;;;;;;;0.20;0.20;;;15.40;99.90;;;;;;5013329;28;20083;-74
2021/08/06 00:21:47;;;;;;;0.57;0.43;;;15.40;99.90;;;;;;4995500;28;20551;-73
2021/08/06 00:24:14;;;;;;;0.20;0.20;;;15.30;99.90;;;;;;4995505;28;20022;-73
2021/08/06 00:26:40;;;;;;;0.30;0.30;;;15.20;99.90;;;;;;4995576;28;20044;-73
2021/08/06 00:29:08;;;;;;;0.65;0.50;;;15.30;99.90;;;;;;4979199;28;20018;-73
2021/08/06 00:31:33;;;;;;;0.25;0.25;;;15.30;99.90;;;;;;4995508;28;20077;-72
2021/08/06 00:33:59;;;;;;;0.20;0.20;;;15.20;99.90;;;;;;5012877;28;20060;-73
2021/08/06 00:36:25;;;;;;;0.10;0.10;;;15.20;99.90;;;;;;5013014;28;20485;-73
2021/08/06 00:38:51;;;;;;;0.10;0.10;;;15.20;99.90;;;;;;5013146;28;20022;-73
2021/08/06 00:41:16;;;;;;;0.10;0.10;;;15.20;99.90;;;;;;4995376;28;20104;-73
2021/08/06 00:43:42;;;;;;;0.17;0.17;;;15.30;99.90;;;;;;5012667;28;20030;-73
2021/08/06 00:46:12;;;;;;;1.65;1.13;;;15.30;99.90;;;;;;4995242;28;20029;-73
2021/08/06 00:48:39;;;;;;;0.40;0.40;;;15.40;99.90;;;;;;5012715;28;20022;-73
2021/08/06 00:51:05;;;;;;;0.22;0.22;;;15.40;99.90;;;;;;5012720;28;20022;-74
2021/08/06 00:53:31;;;;;;;0.30;0.30;;;15.30;99.90;;;;;;5012582;28;20058;-73
2021/08/06 00:55:57;;;;;;;0.15;0.15;;;15.30;99.90;;;;;;5012671;28;20127;-74
2021/08/06 00:58:22;;;;;;;0.20;0.20;;;15.30;99.90;;;;;;5012633;28;20081;-74
2021/08/06 01:00:49;;;;;;;0.17;0.15;;;15.20;99.90;;;;;;5012659;28;20029;-74
2021/08/06 01:03:27;;;;;;;0.30;0.30;;;15.20;99.90;;;;;;4994754;28;20083;-73
2021/08/06 01:06:10;;;;;;;0.10;0.10;;;15.20;99.90;;;;;;5012568;28;20025;-74
2021/08/06 01:08:42;;;;;;;0.10;0.10;;;15.20;99.90;;;;;;4994875;28;20022;-74
2021/08/06 01:11:08;;;;;;;0.10;0.10;;;15.20;99.90;;;;;;5013072;28;20478;-74
2021/08/06 01:13:44;;;;;;;0.65;0.38;;;15.20;99.90;;;;;;4994856;28;20502;-74
2021/08/06 01:16:12;;;;;;;0.20;0.20;;;15.30;99.90;;;;;;4994901;28;20109;-74
2021/08/06 01:18:46;;;;;;;0.10;0.10;;;15.20;99.90;;;;;;5012172;28;20038;-74
2021/08/06 01:21:18;;;;;;;0.10;0.10;;;15.20;99.90;;;;;;5012364;28;20059;-74
2021/08/06 01:23:45;;;;;;;0.10;0.10;;;15.20;99.90;;;;;;5012149;28;20033;-74
2021/08/06 01:26:22;;;;;;;0.10;0.10;;;15.30;99.90;;;;;;4994626;28;20040;-74
2021/08/06 01:28:50;;;;;;;0.10;0.10;;;15.30;99.90;;;;;;5012214;28;20026;-74
2021/08/06 01:31:24;;;;;;;0.10;0.10;;;15.30;99.90;;;;;;5012249;28;20053;-74
2021/08/06 01:33:49;;;;;;;0.10;0.10;;;15.30;99.90;;;;;;5012054;28;20022;-74
2021/08/06 01:36:15;;;;;;;0.10;0.10;;;15.30;99.90;;;;;;5012143;28;20118;-74
2021/08/06 01:38:41;;;;;;;0.10;0.10;;;15.20;99.90;;;;;;5012167;28;20018;-74
2021/08/06 01:41:15;;;;;;;0.10;0.10;;;15.20;99.90;;;;;;4994479;28;20034;-74
2021/08/06 01:46:25;;;;;;;0.10;0.10;;;15.00;99.90;;;;;;5010138;28;20057;-78
2021/08/06 01:48:57;;;;;;;0.17;0.17;;;15.00;99.90;;;;;;4994611;28;20049;-77
2021/08/06 01:51:23;;;;;;;0.10;0.10;;;15.00;99.90;;;;;;5011973;28;20026;-77
2021/08/06 01:53:51;;;;;;;0.10;0.10;;;15.00;99.90;;;;;;5011851;28;20088;-77
2021/08/06 01:56:19;;;;;;;0.10;0.10;;;14.90;99.90;;;;;;5012049;28;20017;-77
2021/08/06 01:58:54;;;;;;;0.10;0.10;;;14.90;99.90;;;;;;4994135;28;20470;-78
2021/08/06 02:01:20;;;;;;;0.10;0.10;;;15.00;99.90;;;;;;5011951;28;20034;-77
2021/08/06 02:03:46;;;;;;;0.55;0.55;;;14.90;99.90;;;;;;4994377;28;20096;-76
2021/08/06 02:06:16;;;;;;;0.10;0.10;;;14.90;99.90;;;;;;4994442;28;20026;-80
2021/08/06 02:08:44;;;;;;;0.10;0.10;;;14.90;99.90;;;;;;4994551;28;20097;-78
2021/08/06 02:11:11;;;;;;;0.13;0.13;;;14.80;99.90;;;;;;4994187;28;20570;-77
2021/08/06 02:13:38;;;;;;;0.20;0.20;;;14.80;99.90;;;;;;5011685;28;20076;-78
2021/08/06 02:16:05;;;;;;;0.10;0.10;;;14.90;99.90;;;;;;5011875;28;20026;-77
2021/08/06 02:18:32;;;;;;;0.45;0.45;;;14.90;99.90;;;;;;5011740;28;20033;-78
2021/08/06 02:21:03;;;;;;;0.10;0.10;;;14.90;99.90;;;;;;4994136;28;20051;-76
2021/08/06 02:23:31;;;;;;;0.10;0.10;;;14.90;99.90;;;;;;5011312;28;20107;-76
2021/08/06 02:25:58;;;;;;;0.10;0.10;;;15.00;99.90;;;;;;4994154;28;20123;-76
2021/08/06 02:28:26;;;;;;;0.10;0.10;;;14.90;99.90;;;;;;4993997;28;20057;-75
2021/08/06 02:30:52;;;;;;;0.00;0.00;;;14.90;99.90;;;;;;5011806;28;20080;-75
2021/08/06 02:33:19;;;;;;;0.10;0.10;;;14.90;99.90;;;;;;4997196;28;20317;-75
2021/08/06 02:35:45;;;;;;;0.13;0.13;;;15.00;99.90;;;;;;4997717;28;20050;-75
2021/08/06 02:38:11;;;;;;;0.10;0.10;;;15.00;99.90;;;;;;5015188;28;20478;-75
2021/08/06 02:40:37;;;;;;;0.10;0.10;;;15.10;99.90;;;;;;4997397;28;20022;-75
2021/08/06 02:43:05;;;;;;;0.17;0.17;;;15.20;99.90;;;;;;4997209;28;20026;-76
2021/08/06 02:45:31;;;;;;;0.10;0.10;;;15.30;99.90;;;;;;4980881;28;20025;-75
2021/08/06 02:47:56;;;;;;;0.10;0.10;;;15.30;99.90;;;;;;4981006;28;20072;-75
2021/08/06 02:50:22;;;;;;;0.13;0.13;;;15.30;99.90;;;;;;5014699;28;20105;-75
2021/08/06 02:52:48;;;;;;;0.10;0.10;;;15.20;99.90;;;;;;4997067;28;20018;-75
2021/08/06 02:55:13;;;;;;;0.10;0.10;;;15.10;99.90;;;;;;5014711;28;20565;-75
2021/08/06 02:57:39;;;;;;;0.10;0.10;;;15.20;99.90;;;;;;5014802;28;20031;-76
2021/08/06 03:00:06;;;;;;;0.10;0.10;;;15.10;99.90;;;;;;5014883;28;20081;-75
2021/08/06 03:02:31;;;;;;;0.10;0.10;;;15.10;99.90;;;;;;4996806;28;20026;-75
2021/08/06 03:04:57;;;;;;;0.20;0.20;;;15.00;99.90;;;;;;4996744;28;20029;-75
2021/08/06 03:07:23;;;;;;;0.20;0.20;;;15.00;99.90;;;;;;4997111;28;20127;-75
2021/08/06 03:09:49;;;;;;;0.25;0.25;;;15.00;99.90;;;;;;5014475;28;20093;-75
2021/08/06 03:12:15;;;;;;;0.10;0.10;;;14.90;99.90;;;;;;4996687;28;20615;-75
2021/08/06 03:14:40;;;;;;;0.10;0.10;;;14.90;99.90;;;;;;5014365;28;20113;-74
2021/08/06 03:17:07;;;;;;;0.10;0.10;;;15.00;99.90;;;;;;4996697;28;20022;-75
2021/08/06 03:19:32;;;;;;;0.10;0.10;;;15.10;99.90;;;;;;5014205;28;20073;-75
2021/08/06 03:21:58;;;;;;;0.10;0.10;;;15.10;99.90;;;;;;5014118;28;20058;-75
2021/08/06 03:24:24;;;;;;;0.10;0.10;;;15.20;99.90;;;;;;4980204;28;20040;-75
2021/08/06 03:26:50;;;;;;;0.10;0.10;;;15.20;99.90;;;;;;4980427;28;20477;-75
2021/08/06 03:29:16;;;;;;;0.13;0.13;;;15.10;99.90;;;;;;4996391;28;20087;-76
2021/08/06 03:31:42;;;;;;;0.75;0.75;;;15.20;99.90;;;;;;5013916;28;20495;-76
2021/08/06 03:34:08;;;;;;;0.10;0.10;;;15.20;99.90;;;;;;4996045;28;20076;-74
2021/08/06 03:36:33;;;;;;;0.10;0.10;;;15.10;99.90;;;;;;5014033;28;20056;-75
2021/08/06 03:38:59;;;;;;;0.10;0.10;;;15.20;99.90;;;;;;5013845;28;20022;-75
2021/08/06 03:41:25;;;;;;;0.10;0.10;;;15.10;99.90;;;;;;5013740;28;20064;-75
2021/08/06 03:43:51;;;;;;;0.10;0.10;;;15.00;99.90;;;;;;5013612;28;20026;-75
2021/08/06 03:46:16;;;;;;;0.10;0.10;;;15.00;99.90;;;;;;5014291;28;20036;-75
2021/08/06 03:48:42;;;;;;;0.10;0.10;;;15.00;99.90;;;;;;5013752;28;20022;-77
2021/08/06 03:51:08;;;;;;;0.10;0.10;;;15.00;99.90;;;;;;5013496;28;20113;-75
2021/08/06 03:53:34;;;;;;;0.10;0.10;;;15.00;99.90;;;;;;5013684;28;20079;-74
2021/08/06 03:55:59;;;;;;;0.20;0.20;;;15.00;99.90;;;;;;4995985;28;20022;-75
2021/08/06 03:58:25;;;;;;;0.10;0.10;;;14.90;99.90;;;;;;4996142;28;20045;-74
2021/08/06 04:00:51;;;;;;;0.10;0.10;;;14.90;99.90;;;;;;4995996;28;20018;-75
2021/08/06 04:03:16;;;;;;;0.10;0.10;;;15.00;99.90;;;;;;5013251;28;20469;-76
2021/08/06 04:05:42;;;;;;;0.10;0.10;;;14.80;99.90;;;;;;5013308;28;20485;-75
2021/08/06 04:08:09;;;;;;;0.10;0.10;;;14.70;99.90;;;;;;4995894;28;20037;-75
2021/08/06 04:10:35;;;;;;;0.10;0.10;;;14.60;99.90;;;;;;4979481;28;20076;-75
2021/08/06 04:13:02;;;;;;;0.10;0.10;;;14.60;99.90;;;;;;5013147;28;20018;-75
2021/08/06 04:15:28;;;;;;;0.10;0.10;;;14.70;99.90;;;;;;4995542;28;20109;-75
2021/08/06 04:17:54;;;;;;;0.10;0.10;;;14.70;99.90;;;;;;4995563;28;20113;-75
2021/08/06 04:20:20;;;;;;;0.10;0.10;;;14.70;99.90;;;;;;5013078;28;20065;-75
2021/08/06 04:22:46;;;;;;;0.10;0.10;;;14.80;99.90;;;;;;5013034;28;20029;-75
2021/08/06 04:25:12;;;;;;;0.10;0.10;;;14.80;99.90;;;;;;5013187;28;20026;-75
2021/08/06 04:27:39;;;;;;;0.10;0.10;;;14.80;99.90;;;;;;5013207;28;20490;-74
2021/08/06 04:30:06;;;;;;;0.10;0.10;;;14.80;99.90;;;;;;4995233;28;20026;-74
2021/08/06 04:32:32;;;;;;;0.10;0.10;;;14.90;99.90;;;;;;5010614;28;20022;-75
2021/08/06 04:34:58;;;;;;;0.10;0.10;;;14.80;99.90;;;;;;5012529;28;20030;-75
2021/08/06 04:37:24;;;;;;;0.10;0.10;;;14.80;99.90;;;;;;5012794;28;20030;-75
2021/08/06 04:39:49;;;;;;;0.00;0.00;;;14.80;99.90;;;;;;5012729;28;20405;-77
2021/08/06 04:42:16;;;;;;;0.20;0.20;;;14.80;99.90;;;;;;4978865;28;20026;-75
2021/08/06 04:44:42;;;;;;;0.10;0.10;;;14.90;99.90;;;;;;4994842;28;20038;-74
2021/08/06 04:47:08;;;;;;;0.10;0.10;;;14.80;99.90;;;;;;4978510;28;20100;-77
2021/08/06 04:49:34;;;;;;;0.10;0.10;;;14.80;99.90;;;;;;5012716;28;20033;-77
2021/08/06 04:52:00;;;;;;;0.10;0.10;;;14.90;99.90;;;;;;5015993;28;20481;-76
2021/08/06 04:54:26;;;;;;;0.10;0.10;;;15.10;99.90;;;;;;4993729;28;20119;-76
2021/08/06 04:56:53;;;;;;;0.10;0.10;;;15.00;99.90;;;;;;4993794;28;20021;-75
2021/08/06 04:59:19;;;;;;;0.00;0.00;;;15.00;99.90;;;;;;4993772;28;20524;-74
2021/08/06 05:01:45;;;;;;;0.10;0.10;;;15.00;99.90;;;;;;5013727;28;20034;-74
2021/08/06 05:04:11;;;;;;;0.10;0.10;;;15.00;99.90;;;;;;5011506;28;20030;-75
2021/08/06 05:06:37;;;;;;;0.10;0.10;;;15.10;99.90;;;;;;5011342;28;20053;-75
2021/08/06 05:09:03;;;;;;;0.10;0.10;;;15.00;99.90;;;;;;4977836;28;20030;-75
2021/08/06 05:11:29;;;;;;;0.10;0.10;;;15.10;99.90;;;;;;4993738;28;20022;-75
2021/08/06 05:13:54;;;;;;;0.10;0.10;;;15.10;99.90;;;;;;5012611;28;20029;-73
2021/08/06 05:16:20;;;;;;;0.05;0.05;;;15.10;99.90;;;;;;4993241;28;20087;-74
2021/08/06 05:18:46;;;;;;;0.10;0.10;;;15.10;99.90;;;;;;5014275;28;20022;-73
2021/08/06 05:21:12;;;;;;;0.10;0.10;;;15.00;99.90;;;;;;4993934;28;20359;-74
2021/08/06 05:23:38;;;;;;;0.10;0.10;;;15.10;99.90;;;;;;4993049;28;20087;-73
2021/08/06 05:26:04;;;;;;;0.00;0.00;;;14.90;99.90;;;;;;5011267;28;20528;-73
2021/08/06 05:28:30;;;;;;;0.10;0.10;;;14.90;99.90;;;;;;4993709;28;20413;-73
2021/08/06 05:30:55;;;;;;;0.20;0.20;;;14.90;99.90;;;;;;4993430;28;20018;-73
2021/08/06 05:33:21;;;;;;;0.10;0.10;;;15.00;99.90;;;;;;4993010;28;20033;-73
2021/08/06 05:35:47;;;;;;;0.00;0.00;;;15.10;99.90;;;;;;4993457;28;20029;-73
2021/08/06 05:38:13;;;;;;;0.10;0.10;;;15.10;99.90;;;;;;4993292;28;20030;-73
2021/08/06 05:40:41;;;;;;;0.10;0.10;;;15.10;99.90;;;;;;4993702;28;20116;-72
2021/08/06 05:43:07;;;;;;;0.00;0.00;;;15.10;99.90;;;;;;5010576;28;20476;-72
2021/08/06 05:45:33;;;;;;;0.20;0.20;;;15.10;99.90;;;;;;5010679;28;20034;-74
2021/08/06 05:47:59;;;;;;;0.10;0.10;;;15.10;99.90;;;;;;4995379;28;20117;-73
2021/08/06 05:50:27;;;;;;;0.10;0.10;;;15.10;99.90;;;;;;4977252;28;20500;-73
2021/08/06 05:52:54;;;;;;;0.00;0.00;;;15.20;99.90;;;;;;5014214;28;20110;-72
2021/08/06 05:55:20;;;;;;;0.63;0.63;;;15.30;99.90;;;;;;5010958;28;20033;-73
2021/08/06 05:57:46;;;;;;;0.10;0.10;;;15.20;99.90;;;;;;5010817;28;20389;-74
2021/08/06 06:00:14;;;;;;;0.10;0.10;;;15.30;99.90;;;;;;5010848;28;20070;-73
2021/08/06 06:02:40;;;;;;;0.10;0.10;;;15.30;99.90;;;;;;4994915;28;20128;-73
2021/08/06 06:05:06;;;;;;;0.10;0.10;;;15.40;99.90;;;;;;4993003;28;20109;-73
2021/08/06 06:07:40;;;;;;;0.10;0.10;;;15.40;99.90;;;;;;5014626;28;20441;-73
2021/08/06 06:10:06;;;;;;;0.55;0.55;;;15.60;99.90;;;;;;4981912;28;20026;-74
2021/08/06 06:12:32;;;;;;;0.10;0.10;;;15.50;99.90;;;;;;4996305;28;20381;-74
2021/08/06 06:14:58;;;;;;;0.10;0.10;;;15.60;99.90;;;;;;4996903;28;20030;-74
2021/08/06 06:17:24;;;;;;;0.32;0.32;;;15.50;99.90;;;;;;5014276;28;20512;-73
2021/08/06 06:19:51;;;;;;;0.20;0.20;;;15.50;99.90;;;;;;5014240;28;20101;-73
2021/08/06 06:22:17;;;;;;;0.20;0.20;;;15.50;99.90;;;;;;5014264;28;20026;-74
2021/08/06 06:24:42;;;;;;;0.10;0.10;;;15.70;99.90;;;;;;4996641;28;20037;-74
2021/08/06 06:27:09;;;;;;;0.38;0.38;;;15.70;99.90;;;;;;4996180;28;20018;-73
2021/08/06 06:29:35;;;;;;;0.20;0.20;;;15.80;99.90;;;;;;5000881;28;20015;-74
2021/08/06 06:32:01;;;;;;;0.10;0.10;;;15.90;99.90;;;;;;4996277;28;20033;-73
2021/08/06 06:34:27;;;;;;;0.10;0.10;;;16.00;99.90;;;;;;5000109;28;20045;-73
2021/08/06 06:36:53;;;;;;;0.77;0.50;;;16.10;99.90;;;;;;4996668;28;20101;-73
2021/08/06 06:39:19;;;;;;;0.20;0.20;;;16.20;99.90;;;;;;5014160;28;20101;-74
2021/08/06 06:41:45;;;;;;;0.13;0.13;;;16.20;99.90;;;;;;5013989;28;20022;-74
2021/08/06 06:44:11;;;;;;;0.10;0.10;;;16.10;99.90;;;;;;5000220;28;20036;-73
2021/08/06 06:46:36;;;;;;;0.10;0.10;;;16.20;99.90;;;;;;4996132;28;20109;-75
2021/08/06 06:49:02;;;;;;;0.10;0.10;;;16.30;99.90;;;;;;4996919;28;20022;-76
2021/08/06 06:51:28;;;;;;;0.10;0.10;;;16.50;99.90;;;;;;4996038;28;20032;-74
2021/08/06 06:53:54;;;;;;;3.10;2.83;;;16.60;99.90;;;;;;4983167;28;20456;-73
2021/08/06 06:56:19;;;;;;;0.20;0.20;;;16.60;99.90;;;;;;5015929;28;20034;-73
2021/08/06 06:58:45;;;;;;;0.17;0.17;;;16.50;99.90;;;;;;5013357;28;20080;-74
2021/08/06 07:01:11;;;;;;;0.25;0.25;;;16.40;99.90;;;;;;4996019;28;20105;-74
2021/08/06 07:03:37;;;;;;;0.10;0.10;;;16.60;99.90;;;;;;4982460;28;20436;-74
2021/08/06 07:06:02;;;;;;;1.98;0.20;;;16.50;99.90;;;;;;4991661;28;20093;-75
2021/08/06 07:08:28;;;;;;;0.10;0.10;;;16.50;99.90;;;;;;5010343;28;20109;-74
2021/08/06 07:10:54;;;;;;;0.20;0.20;;;16.40;99.90;;;;;;5012821;28;20490;-74
2021/08/06 07:13:20;;;;;;;0.25;0.25;;;16.50;99.90;;;;;;5012456;28;20022;-74
2021/08/06 07:15:46;;;;;;;0.20;0.20;;;16.60;99.90;;;;;;5016465;28;20036;-74
2021/08/06 07:18:13;;;;;;;0.75;0.40;;;16.40;99.90;;;;;;5012940;28;20026;-74
2021/08/06 07:20:39;;;;;;;0.10;0.10;;;16.20;99.90;;;;;;4995292;28;20125;-74
2021/08/06 07:23:05;;;;;;;0.10;0.10;;;16.20;99.90;;;;;;5012456;28;20118;-75
2021/08/06 07:25:32;;;;;;;0.20;0.20;;;16.30;99.90;;;;;;4994368;28;20100;-74
2021/08/06 07:27:58;;;;;;;0.10;0.10;;;16.30;99.90;;;;;;5007974;28;20053;-73
2021/08/06 07:30:24;;;;;;;2.08;0.20;;;16.20;99.90;;;;;;4977922;28;20050;-74
2021/08/06 07:32:50;;;;;;;0.40;0.40;;;16.30;99.90;;;;;;5012092;28;20450;-74
2021/08/06 07:35:18;;;;;;;0.20;0.20;;;16.30;99.90;;;;;;4999306;28;20026;-77
2021/08/06 07:37:44;;;;;;;0.57;0.57;;;16.40;99.90;;;;;;4995214;28;20436;-77
2021/08/06 07:40:12;;;;;;;2.42;1.27;;;16.40;99.90;;;;;;4994483;28;20034;-76
2021/08/06 07:42:38;;;;;;;0.30;0.30;;;16.40;99.90;;;;;;5012396;28;20018;-77
2021/08/06 07:45:05;;;;;;;2.08;0.40;;;16.40;99.90;;;;;;5012342;28;20389;-77
2021/08/06 07:47:31;;;;;;;0.65;0.35;;;16.40;99.90;;;;;;4994702;28;20025;-77
2021/08/06 07:49:56;;;;;;;0.15;0.15;;;16.60;99.90;;;;;;4999108;28;20049;-77
2021/08/06 07:52:22;;;;;;;0.10;0.10;;;16.70;99.90;;;;;;5012323;28;20096;-77
2021/08/06 07:54:48;;;;;;;0.65;0.63;;;16.80;99.90;;;;;;4994994;28;20076;-77
2021/08/06 07:57:14;;;;;;;0.10;0.10;;;16.90;99.90;;;;;;5012505;28;20188;-77
2021/08/06 07:59:40;;;;;;;0.10;0.10;;;17.00;99.90;;;;;;4997257;28;20033;-77
2021/08/06 08:02:07;;;;;;;0.75;0.50;;;17.20;99.90;;;;;;4993762;28;20068;-77
2021/08/06 08:04:33;;;;;;;0.25;0.25;;;16.90;99.90;;;;;;4994559;28;20030;-77
2021/08/06 08:06:59;;;;;;;0.10;0.10;;;17.00;99.90;;;;;;5012097;28;20014;-77
2021/08/06 08:09:24;;;;;;;0.00;0.00;;;17.00;99.90;;;;;;4995143;28;20025;-77
2021/08/06 08:11:50;;;;;;;0.10;0.10;;;17.10;99.90;;;;;;5011655;28;20053;-77
2021/08/06 08:14:16;;;;;;;0.10;0.10;;;17.20;99.90;;;;;;4994162;28;20057;-75
2021/08/06 08:16:42;;;;;;;0.43;0.43;;;17.20;99.90;;;;;;4995961;28;20034;-74
2021/08/06 08:19:08;;;;;;;0.03;0.03;;;16.90;99.90;;;;;;4977730;28;20026;-75
2021/08/06 08:21:33;;;;;;;0.10;0.10;;;16.90;99.90;;;;;;4981072;28;20129;-75
2021/08/06 08:23:59;;;;;;;0.85;0.15;;;16.80;99.90;;;;;;5011265;28;20037;-75
2021/08/06 08:26:25;;;;;;;0.52;0.38;;;16.90;99.90;;;;;;5011433;28;20125;-74
2021/08/06 08:28:51;;;;;;;0.20;0.20;;;16.90;99.90;;;;;;4992446;28;20297;-75
2021/08/06 08:31:17;;;;;;;0.43;0.38;;;16.70;99.90;;;;;;4993254;28;20151;-75
2021/08/06 08:33:44;;;;;;;0.10;0.10;;;16.70;99.90;;;;;;4977683;28;20030;-74
2021/08/06 08:36:10;;;;;;;1.17;0.90;;;16.50;99.90;;;;;;4993214;28;20022;-75
2021/08/06 08:38:36;;;;;;;0.52;0.30;;;16.40;99.90;;;;;;5011108;28;20437;-75
2021/08/06 08:41:03;;;;;;;0.30;0.30;;;16.40;99.90;;;;;;5011205;28;20030;-74
2021/08/06 08:43:29;;;;;;;0.10;0.10;;;16.30;99.90;;;;;;4992702;28;20022;-75
2021/08/06 08:45:56;;;;;;;0.05;0.05;;;16.30;99.90;;;;;;4991835;28;20113;-75
2021/08/06 08:48:22;;;;;;;0.10;0.10;;;16.30;99.90;;;;;;5010943;28;20501;-75
2021/08/06 08:50:52;;;;;;;0.50;0.50;;;16.40;99.90;;;;;;4992733;28;20068;-75
2021/08/06 08:53:18;;;;;;;0.17;0.10;;;16.50;99.90;;;;;;4988734;28;20032;-75
2021/08/06 08:55:44;;;;;;;0.08;0.08;;;16.60;99.90;;;;;;4993357;28;20025;-75
2021/08/06 08:58:11;;;;;;;0.20;0.20;;;16.70;99.90;;;;;;4993677;28;20072;-75
2021/08/06 09:00:37;;;;;;;0.20;0.20;;;16.90;99.90;;;;;;4994417;28;20556;-74
2021/08/06 09:03:03;;;;;;;0.20;0.20;;;16.90;99.90;;;;;;4993435;28;20021;-75
2021/08/06 09:05:29;;;;;;;0.00;0.00;;;17.00;99.90;;;;;;4994231;28;20507;-75
2021/08/06 09:07:56;;;;;;;0.10;0.10;;;17.10;99.90;;;;;;4976792;28;20029;-75
2021/08/06 09:10:30;;;;;;;0.10;0.10;;;17.40;99.90;;;;;;4994416;28;20389;-75
2021/08/06 09:13:02;;;;;;;0.17;0.17;;;17.80;99.90;;;;;;4995166;28;20053;-75
2021/08/06 09:15:42;;;;;;;;;;;17.80;99.90;;;;;;5011828;28;20032;-75
2021/08/06 09:18:24;;;;;;;0.32;0.32;;;17.70;99.90;;;;;;5010932;28;20439;-75
2021/08/06 09:21:00;;;;;;;0.35;0.30;;;18.10;99.90;;;;;;5010677;28;20037;-75
2021/08/06 09:23:41;;;;;;;0.40;0.40;;;18.60;99.90;;;;;;4992840;28;20034;-75
2021/08/06 09:26:27;;;;;;;0.75;0.63;;;18.60;99.90;;;;;;4991485;28;20037;-75
2021/08/06 09:29:07;;;;;;;0.10;0.10;;;18.60;99.90;;;;;;4991248;28;20366;-75
2021/08/06 09:31:35;;;;;;;0.00;0.00;;;19.00;99.90;;;;;;5008237;28;20026;-74
2021/08/06 09:34:12;;;;;;;0.47;0.45;;;19.60;99.90;;;;;;4991346;28;20580;-75
2021/08/06 09:36:38;;;;;;;0.10;0.10;;;20.30;99.90;;;;;;4972839;28;20026;-74
2021/08/06 09:39:17;;;;;;;2.42;2.22;;;20.60;99.90;;;;;;4974670;28;20413;-75
2021/08/06 09:41:45;;;;;;;2.00;0.95;;;20.90;99.90;;;;;;5016390;28;20030;-74
2021/08/06 09:44:21;;;;;;;0.22;0.22;;;20.70;99.90;;;;;;5014399;28;20030;-74
2021/08/06 09:46:47;;;;;;;0.03;0.03;;;20.60;99.90;;;;;;5014460;28;20101;-75
2021/08/06 09:49:13;;;;;;;0.77;0.40;;;21.00;99.90;;;;;;4996647;28;20054;-75
2021/08/06 09:51:41;;;;;;;0.00;0.00;;;21.40;99.90;;;;;;4997947;28;20033;-75
2021/08/06 09:54:28;;;;;;;0.40;0.35;;;21.60;99.90;;;;;;5013665;28;20038;-75
2021/08/06 09:57:20;;;;;;;1.75;0.55;;;22.40;99.90;;;;;;4980937;28;20044;-75
2021/08/06 09:59:51;;;;;;;3.95;0.35;;;22.60;98.00;;;;;;5011269;28;20100;-75
2021/08/06 10:02:21;;;;;;;0.00;0.00;;;22.50;95.20;;;;;;4978092;28;20053;-74
2021/08/06 10:07:21;;;;;;;0.10;0.10;;;22.40;95.00;;;;;;4951777;29;20039;-77
2021/08/06 10:09:47;;;;;;;9.13;0.40;;;22.40;96.50;;;;;;4924981;29;20023;-77
2021/08/06 10:12:13;;;;;;;0.13;0.13;;;22.40;94.10;;;;;;4940258;29;20046;-77
2021/08/06 10:14:39;;;;;;;0.10;0.10;;;21.80;94.90;;;;;;4957254;29;20059;-77
2021/08/06 10:17:05;;;;;;;0.03;0.03;;;21.90;96.40;;;;;;4941493;29;20028;-77
2021/08/06 10:19:31;;;;;;;0.08;0.08;;;22.10;93.40;;;;;;4905664;29;20032;-77
2021/08/06 10:21:58;;;;;;;0.10;0.10;;;22.20;94.80;;;;;;4920648;29;20039;-77
2021/08/06 10:24:24;;;;;;;0.10;0.10;;;22.60;94.70;;;;;;4944396;29;20464;-77
2021/08/06 10:26:50;;;;;;;0.00;0.00;;;22.80;93.50;;;;;;4940350;29;20078;-77
2021/08/06 10:29:20;;;;;;;0.00;0.00;;;23.30;94.10;;;;;;4957353;29;20634;-77
2021/08/06 10:32:11;;;;;;;0.00;0.00;;;24.00;90.40;;;;;;4939886;29;20023;-77
2021/08/06 10:35:02;;;;;;;0.10;0.10;;;23.80;87.50;;;;;;4957560;28;20110;-77
2021/08/06 10:37:54;;;;;;;0.30;0.30;;;23.70;89.10;;;;;;4924348;29;20082;-77
2021/08/06 10:40:35;;;;;;;0.00;0.00;;;23.30;83.60;;;;;;4938957;29;20086;-76
2021/08/06 10:43:10;;;;;;;0.52;0.45;;;24.00;86.10;;;;;;4957582;29;20031;-77
2021/08/06 10:45:45;;;;;;;0.00;0.00;;;24.50;79.50;;;;;;4925889;29;20034;-77
2021/08/06 10:48:32;;;;;;;0.75;0.68;;;24.60;78.70;;;;;;4959050;29;20027;-77
2021/08/06 10:51:20;;;;;;;2.13;0.85;;;24.10;75.80;;;;;;4925359;29;20027;-76
2021/08/06 10:53:56;;;;;;;0.90;0.47;;;23.40;76.20;;;;;;4940222;29;20046;-77
2021/08/06 10:56:32;;;;;;;0.73;0.40;;;23.30;76.60;;;;;;4957822;29;20029;-77
2021/08/06 10:59:14;;;;;;;0.15;0.15;;;23.20;75.00;;;;;;4957103;29;20027;-77
2021/08/06 11:01:47;;;;;;;0.73;0.38;;;23.30;78.80;;;;;;4940803;29;20050;-77
2021/08/06 11:04:13;;;;;;;7.10;2.30;;;23.40;75.70;;;;;;4958585;28;20082;-77
2021/08/06 11:06:41;;;;;;;0.15;0.15;;;24.00;73.10;;;;;;4941060;29;20039;-77
2021/08/06 11:09:07;;;;;;;2.53;1.17;;;24.60;72.80;;;;;;4925927;29;20023;-77
2021/08/06 11:11:49;;;;;;;0.40;0.40;;;24.30;72.50;;;;;;4958130;29;20494;-77
2021/08/06 11:14:17;;;;;;;4.85;0.35;;;24.30;70.70;;;;;;4940101;29;20110;-77
2021/08/06 11:17:22;;;;;;;0.10;0.10;;;24.50;72.90;;;;;;4956490;29;20066;-76
2021/08/06 11:19:50;;;;;;;5.05;0.10;;;25.30;68.70;;;;;;4949587;29;20131;-77
2021/08/06 11:22:16;;;;;;;0.30;0.30;;;24.90;69.20;;;;;;4955564;29;20094;-76
2021/08/06 11:24:45;;;;;;;0.10;0.10;;;24.30;68.50;;;;;;4955212;28;20035;-77
2021/08/06 11:27:12;;;;;;;0.40;0.40;;;24.50;69.80;;;;;;4955607;29;20011;-75
2021/08/06 11:29:39;;;;;;;0.22;0.22;;;24.70;69.20;;;;;;4955625;29;20019;-77
2021/08/06 11:32:11;;;;;;;0.93;0.43;;;25.10;69.00;;;;;;4938244;29;20050;-76
2021/08/06 11:34:55;;;;;;;;;;;24.90;68.00;;;;;;4938570;29;20027;-77
2021/08/06 11:37:22;;;;;;;5.30;0.68;;;24.90;69.20;;;;;;4938156;29;19945;-77
2021/08/06 11:40:08;;;;;;;1.20;0.90;;;24.10;68.60;;;;;;4938034;29;20495;-76
2021/08/06 11:42:34;;;;;;;1.23;0.65;;;23.30;72.80;;;;;;4922120;29;20039;-77
2021/08/06 11:45:00;;;;;;;4.20;0.47;;;23.80;72.70;;;;;;4937513;29;20118;-77
2021/08/06 11:47:38;;;;;;;0.03;0.03;;;23.90;71.30;;;;;;4934880;29;20159;-77
2021/08/06 11:50:05;;;;;;;0.00;0.00;;;24.50;68.90;;;;;;4921709;29;20514;-77
2021/08/06 11:52:42;;;;;;;1.90;0.60;;;24.40;69.10;;;;;;4954989;29;20023;-76
2021/08/06 11:55:10;;;;;;;0.35;0.28;;;24.60;67.00;;;;;;4954846;29;20031;-76
2021/08/06 11:57:49;;;;;;;0.00;0.00;;;25.00;69.00;;;;;;4955384;29;20046;-76
2021/08/06 12:00:32;;;;;;;0.63;0.55;;;24.90;68.20;;;;;;4937355;29;20606;-77
2021/08/06 12:03:09;;;;;;;0.10;0.10;;;24.60;66.90;;;;;;4956979;28;20031;-79
2021/08/06 12:05:41;;;;;;;11.45;1.75;;;24.70;70.10;;;;;;4925450;29;20027;-80
2021/08/06 12:08:31;;;;;;;0.10;0.10;;;24.60;68.30;;;;;;4925933;29;20019;-80
2021/08/06 12:11:06;;;;;;;0.05;0.05;;;24.50;66.70;;;;;;4942199;29;20368;-79
2021/08/06 12:13:34;;;;;;;0.80;0.20;;;24.20;65.50;;;;;;4925728;29;20024;-81
2021/08/06 12:16:07;;;;;;;0.75;0.75;;;24.50;63.20;;;;;;4925662;29;20324;-80
2021/08/06 12:18:34;;;;;;;0.10;0.10;;;24.10;63.60;;;;;;4941438;29;20042;-79
2021/08/06 12:21:13;;;;;;;0.45;0.45;;;24.30;64.00;;;;;;4943595;29;20042;-79
2021/08/06 12:23:44;;;;;;;1.05;0.98;;;24.30;63.20;;;;;;4943106;29;20110;-79
2021/08/06 12:26:15;;;;;;;0.00;0.00;;;24.10;63.80;;;;;;4942420;29;20102;-79
2021/08/06 12:28:47;;;;;;;0.13;0.13;;;24.10;64.30;;;;;;4927604;29;20059;-80
2021/08/06 12:31:24;;;;;;;0.73;0.40;;;24.00;64.50;;;;;;4942555;29;20030;-79
2021/08/06 12:34:14;;;;;;;0.40;0.40;;;24.10;65.30;;;;;;4926005;29;20109;-80
2021/08/06 12:36:52;;;;;;;0.15;0.15;;;24.10;65.00;;;;;;4925792;29;20027;-80
2021/08/06 12:39:18;;;;;;;0.10;0.10;;;23.90;66.60;;;;;;4926009;29;20020;-80
2021/08/06 12:41:46;;;;;;;2.03;0.38;;;24.10;66.40;;;;;;4941233;29;20035;-80
2021/08/06 12:44:20;;;;;;;0.40;0.40;;;24.10;66.70;;;;;;4940779;28;20028;-80
2021/08/06 12:47:16;;;;;;;0.10;0.10;;;24.00;64.90;;;;;;4925080;29;20027;-80
2021/08/06 12:49:53;;;;;;;0.10;0.10;;;23.60;66.40;;;;;;4958694;29;20461;-81
2021/08/06 12:52:30;;;;;;;0.03;0.03;;;23.30;66.90;;;;;;4941767;29;20054;-78
2021/08/06 12:55:05;;;;;;;0.80;0.80;;;22.90;68.60;;;;;;4941391;29;20035;-81
2021/08/06 12:57:49;;;;;;;0.30;0.30;;;22.80;70.40;;;;;;4942884;29;20111;-81
2021/08/06 13:00:19;;;;;;;0.10;0.10;;;23.20;69.10;;;;;;4942553;29;20121;-81
2021/08/06 13:03:01;;;;;;;0.57;0.20;;;23.60;68.00;;;;;;4927349;29;20027;-81